createdAt,value
2022-08-03T00:01:09.716Z,23.83
2022-08-03T00:03:36.150Z,23.82
2022-08-03T00:06:02.645Z,23.79
2022-08-03T00:08:28.878Z,23.80
2022-08-03T00:10:55.238Z,23.80
2022-08-03T00:13:21.675Z,23.87
2022-08-03T00:15:48.052Z,23.85
2022-08-03T00:18:14.421Z,23.90
2022-08-03T00:20:40.871Z,23.96
2022-08-03T00:23:07.305Z,23.93
2022-08-03T00:25:33.682Z,23.84
2022-08-03T00:28:00.046Z,23.77
2022-08-03T00:30:26.848Z,23.75
2022-08-03T00:32:52.933Z,23.70
2022-08-03T00:35:32.606Z,23.67
2022-08-03T00:37:45.702Z,23.61
2022-08-03T00:40:12.074Z,23.50
2022-08-03T00:42:38.450Z,23.39
2022-08-03T00:45:04.832Z,23.30
2022-08-03T00:47:31.229Z,23.24
2022-08-03T00:49:57.662Z,23.21
2022-08-03T00:52:24.040Z,23.19
2022-08-03T00:54:50.407Z,23.17
2022-08-03T00:57:16.773Z,23.16
2022-08-03T00:59:43.184Z,23.16
2022-08-03T01:02:09.663Z,23.16
2022-08-03T01:04:35.983Z,23.16
2022-08-03T01:07:02.353Z,23.22
2022-08-03T01:09:28.721Z,23.29
2022-08-03T01:12:00.147Z,23.32
2022-08-03T01:14:21.580Z,23.31
2022-08-03T01:16:47.942Z,23.29
2022-08-03T01:19:14.326Z,23.26
2022-08-03T01:21:40.713Z,23.30
2022-08-03T01:24:07.104Z,23.23
2022-08-03T01:26:33.473Z,23.17
2022-08-03T01:28:59.842Z,23.13
2022-08-03T01:31:26.233Z,23.05
2022-08-03T01:33:52.370Z,22.99
2022-08-03T01:36:18.757Z,22.87
2022-08-03T01:38:45.191Z,22.93
2022-08-03T01:41:11.573Z,22.98
2022-08-03T01:44:27.852Z,22.93
2022-08-03T01:46:04.337Z,22.90
2022-08-03T01:48:30.692Z,22.86
2022-08-03T01:50:57.061Z,22.85
2022-08-03T01:53:23.462Z,22.82
2022-08-03T01:55:49.926Z,22.79
2022-08-03T01:58:16.348Z,22.77
2022-08-03T02:00:42.786Z,22.76
2022-08-03T02:03:09.215Z,22.75
2022-08-03T02:05:35.654Z,22.68
2022-08-03T02:08:02.040Z,22.57
2022-08-03T02:10:34.711Z,22.51
2022-08-03T02:12:54.803Z,22.45
2022-08-03T02:15:21.279Z,22.43
2022-08-03T02:17:47.641Z,22.40
2022-08-03T02:20:14.037Z,22.33
2022-08-03T02:22:40.388Z,22.30
2022-08-03T02:25:06.907Z,22.30
2022-08-03T02:27:33.286Z,22.31
2022-08-03T02:29:59.775Z,22.32
2022-08-03T02:32:26.135Z,22.33
2022-08-03T02:34:52.537Z,22.33
2022-08-03T02:37:18.915Z,22.31
2022-08-03T02:39:45.281Z,22.33
2022-08-03T02:42:12.241Z,22.30
2022-08-03T02:44:38.106Z,22.28
2022-08-03T02:47:04.507Z,22.22
2022-08-03T02:49:40.864Z,22.20
2022-08-03T02:51:57.256Z,22.24
2022-08-03T02:54:23.622Z,22.23
2022-08-03T02:56:50.023Z,22.30
2022-08-03T02:59:16.463Z,22.27
2022-08-03T03:01:42.823Z,22.22
2022-08-03T03:04:09.192Z,22.22
2022-08-03T03:06:35.573Z,22.18
2022-08-03T03:09:01.984Z,22.16
2022-08-03T03:11:28.417Z,22.17
2022-08-03T03:13:54.844Z,22.18
2022-08-03T03:16:21.223Z,22.13
2022-08-03T03:18:47.598Z,22.02
2022-08-03T03:21:13.959Z,22.02
2022-08-03T03:23:40.327Z,22.06
2022-08-03T03:26:06.716Z,22.10
2022-08-03T03:28:33.081Z,22.17
2022-08-03T03:30:59.440Z,22.18
2022-08-03T03:33:28.262Z,22.16
2022-08-03T03:35:52.272Z,22.13
2022-08-03T03:38:18.776Z,22.12
2022-08-03T03:40:45.135Z,22.07
2022-08-03T03:43:11.537Z,21.94
2022-08-03T03:45:37.935Z,21.84
2022-08-03T03:48:04.398Z,21.76
2022-08-03T03:50:30.783Z,21.74
2022-08-03T03:52:57.268Z,21.71
2022-08-03T03:55:23.703Z,21.71
2022-08-03T03:57:50.084Z,21.72
2022-08-03T04:00:16.470Z,21.71
2022-08-03T04:02:42.836Z,21.74
2022-08-03T04:05:09.233Z,21.81
2022-08-03T04:07:35.634Z,21.85
2022-08-03T04:10:14.423Z,21.87
2022-08-03T04:12:28.425Z,21.89
2022-08-03T04:14:54.813Z,21.88
2022-08-03T04:17:21.202Z,21.84
2022-08-03T04:19:47.559Z,21.86
2022-08-03T04:22:14.127Z,21.86
2022-08-03T04:24:40.397Z,21.88
2022-08-03T04:27:06.809Z,21.91
2022-08-03T04:29:33.252Z,21.96
2022-08-03T04:31:59.614Z,21.99
2022-08-03T04:34:26.025Z,21.99
2022-08-03T04:36:52.377Z,21.99
2022-08-03T04:39:18.781Z,21.93
2022-08-03T04:42:07.312Z,21.94
2022-08-03T04:44:11.582Z,21.97
2022-08-03T04:46:37.966Z,22.01
2022-08-03T04:49:04.451Z,22.06
2022-08-03T04:51:30.843Z,22.09
2022-08-03T04:53:57.277Z,22.13
2022-08-03T04:56:23.641Z,22.13
2022-08-03T04:58:50.037Z,22.35
2022-08-03T05:01:16.527Z,22.59
2022-08-03T05:03:42.904Z,22.63
2022-08-03T05:06:09.671Z,22.65
2022-08-03T05:08:35.686Z,22.67
2022-08-03T05:11:02.056Z,22.73
2022-08-03T05:13:28.526Z,22.86
2022-08-03T05:15:54.928Z,22.98
2022-08-03T05:18:21.294Z,23.13
2022-08-03T05:20:47.663Z,23.28
2022-08-03T05:23:14.070Z,23.43
2022-08-03T05:25:40.456Z,23.49
2022-08-03T05:28:06.928Z,23.47
2022-08-03T05:30:34.339Z,23.51
2022-08-03T05:32:59.702Z,23.52
2022-08-03T05:36:01.412Z,23.56
2022-08-03T05:37:54.424Z,23.53
2022-08-03T05:40:18.928Z,23.60
2022-08-03T05:42:45.322Z,23.64
2022-08-03T05:45:11.703Z,23.72
2022-08-03T05:47:38.070Z,23.81
2022-08-03T05:50:04.459Z,23.93
2022-08-03T05:52:30.970Z,24.07
2022-08-03T05:54:57.803Z,24.22
2022-08-03T05:57:23.736Z,24.42
2022-08-03T05:59:54.635Z,24.73
2022-08-03T06:02:16.702Z,25.01
2022-08-03T06:04:42.901Z,25.19
2022-08-03T06:07:09.287Z,25.27
2022-08-03T06:10:36.610Z,25.29
2022-08-03T06:12:02.106Z,25.33
2022-08-03T06:14:28.473Z,25.36
2022-08-03T06:16:54.887Z,25.46
2022-08-03T06:19:21.248Z,25.62
2022-08-03T06:21:47.616Z,25.83
2022-08-03T06:24:14.069Z,26.01
2022-08-03T06:26:40.438Z,26.11
2022-08-03T06:29:06.803Z,26.15
2022-08-03T06:31:33.811Z,26.20
2022-08-03T06:34:34.095Z,26.46
2022-08-03T06:36:25.936Z,26.93
2022-08-03T06:38:52.336Z,27.37
2022-08-03T06:41:18.729Z,27.66
2022-08-03T06:44:03.904Z,27.94
2022-08-03T06:46:11.477Z,28.24
2022-08-03T06:48:38.253Z,28.45
2022-08-03T06:51:04.645Z,28.55
2022-08-03T06:53:31.162Z,28.61
2022-08-03T06:55:57.599Z,28.75
2022-08-03T06:58:24.003Z,29.15
2022-08-03T07:00:50.389Z,29.67
2022-08-03T07:03:16.751Z,29.92
2022-08-03T07:05:43.124Z,29.97
2022-08-03T07:08:09.526Z,30.29
2022-08-03T07:10:35.992Z,30.56
2022-08-03T07:13:03.453Z,30.84
2022-08-03T07:15:53.938Z,30.88
2022-08-03T07:17:56.183Z,30.85
2022-08-03T07:20:22.589Z,30.63
2022-08-03T07:22:48.971Z,30.70
2022-08-03T07:25:15.421Z,31.08
2022-08-03T07:27:41.769Z,31.43
2022-08-03T07:30:08.139Z,31.59
2022-08-03T07:32:34.515Z,31.69
2022-08-03T07:35:01.706Z,31.64
2022-08-03T07:37:27.318Z,31.67
2022-08-03T07:39:53.701Z,31.90
2022-08-03T07:42:20.108Z,31.97
2022-08-03T07:44:46.470Z,31.84
2022-08-03T07:47:22.188Z,31.66
2022-08-03T07:49:39.353Z,31.68
2022-08-03T07:52:05.763Z,31.80
2022-08-03T07:54:32.155Z,31.89
2022-08-03T07:56:58.520Z,32.17
2022-08-03T07:59:24.920Z,32.45
2022-08-03T08:01:51.335Z,32.62
2022-08-03T08:04:17.722Z,32.73
2022-08-03T08:06:44.108Z,32.82
2022-08-03T08:09:10.487Z,32.91
2022-08-03T08:11:39.995Z,32.99
2022-08-03T08:14:03.246Z,33.09
2022-08-03T08:16:29.682Z,33.12
2022-08-03T08:18:56.051Z,33.15
2022-08-03T08:21:22.427Z,33.19
2022-08-03T08:23:53.736Z,33.21
2022-08-03T08:26:15.169Z,33.28
2022-08-03T08:28:41.560Z,33.30
2022-08-03T08:31:07.939Z,33.41
2022-08-03T08:34:02.153Z,33.47
2022-08-03T08:36:00.749Z,33.58
2022-08-03T08:38:27.127Z,33.62
2022-08-03T08:40:53.521Z,33.65
2022-08-03T08:43:19.884Z,33.65
2022-08-03T08:45:46.243Z,33.68
2022-08-03T08:48:12.634Z,33.74
2022-08-03T08:50:39.012Z,33.86
2022-08-03T08:53:05.379Z,33.78
2022-08-03T08:55:58.342Z,33.76
2022-08-03T08:57:58.204Z,33.81
2022-08-03T09:00:24.593Z,33.78
2022-08-03T09:02:51.106Z,33.69
2022-08-03T09:05:17.487Z,33.82
2022-08-03T09:07:43.877Z,34.08
2022-08-03T09:10:13.299Z,34.42
2022-08-03T09:12:41.583Z,34.54
2022-08-03T09:15:16.421Z,34.16
2022-08-03T09:17:29.424Z,34.19
2022-08-03T09:20:03.177Z,34.19
2022-08-03T09:22:22.245Z,34.35
2022-08-03T09:25:03.179Z,34.40
2022-08-03T09:27:15.149Z,34.46
2022-08-03T09:29:41.404Z,34.35
2022-08-03T09:32:07.796Z,34.38
2022-08-03T09:34:34.177Z,34.22
2022-08-03T09:37:00.637Z,34.18
2022-08-03T09:39:41.508Z,34.18
2022-08-03T09:41:53.373Z,33.99
2022-08-03T09:44:25.146Z,33.88
2022-08-03T09:46:46.172Z,33.75
2022-08-03T09:49:12.584Z,33.63
2022-08-03T09:52:32.566Z,33.70
2022-08-03T09:54:09.563Z,33.98
2022-08-03T09:56:36.318Z,34.19
2022-08-03T09:58:58.054Z,34.38
2022-08-03T10:01:25.442Z,34.47
2022-08-03T10:04:03.414Z,34.51
2022-08-03T10:06:17.228Z,34.72
2022-08-03T10:08:43.656Z,34.92
2022-08-03T10:11:10.357Z,35.00
2022-08-03T10:13:36.744Z,35.13
2022-08-03T10:16:21.483Z,35.29
2022-08-03T10:18:29.503Z,35.33
2022-08-03T10:20:55.907Z,35.43
2022-08-03T10:23:22.282Z,35.60
2022-08-03T10:25:48.686Z,35.81
2022-08-03T10:28:15.099Z,35.82
2022-08-03T10:30:41.486Z,35.86
2022-08-03T10:33:15.326Z,35.83
2022-08-03T10:35:34.231Z,35.66
2022-08-03T10:38:00.614Z,35.62
2022-08-03T10:40:46.828Z,35.70
2022-08-03T10:42:53.388Z,35.80
2022-08-03T10:45:20.420Z,35.84
2022-08-03T10:47:46.783Z,35.96
2022-08-03T10:50:13.156Z,36.07
2022-08-03T10:52:42.202Z,36.03
2022-08-03T10:55:07.607Z,35.98
2022-08-03T10:57:32.421Z,35.98
2022-08-03T10:59:58.849Z,35.97
2022-08-03T11:02:25.208Z,35.93
2022-08-03T11:04:51.616Z,35.96
2022-08-03T11:07:18.233Z,35.96
2022-08-03T11:09:44.500Z,36.00
2022-08-03T11:12:10.871Z,36.06
2022-08-03T11:14:37.241Z,36.01
2022-08-03T11:17:03.615Z,36.09
2022-08-03T11:19:30.008Z,36.23
2022-08-03T11:21:56.394Z,36.35
2022-08-03T11:24:22.879Z,36.37
2022-08-03T11:26:49.314Z,36.39
2022-08-03T11:29:15.686Z,36.42
2022-08-03T11:31:50.917Z,36.41
2022-08-03T11:34:08.561Z,36.42
2022-08-03T11:36:34.944Z,36.46
2022-08-03T11:39:01.315Z,36.51
2022-08-03T11:41:27.702Z,36.45
2022-08-03T11:43:54.076Z,36.37
2022-08-03T11:46:28.227Z,36.38
2022-08-03T11:48:46.919Z,36.45
2022-08-03T11:51:13.332Z,36.54
2022-08-03T11:53:41.708Z,36.58
2022-08-03T11:56:06.210Z,36.65
2022-08-03T11:59:10.869Z,36.57
2022-08-03T12:00:59.067Z,36.59
2022-08-03T12:03:25.531Z,36.67
2022-08-03T12:05:52.668Z,36.72
2022-08-03T12:08:18.312Z,36.70
2022-08-03T12:10:44.740Z,36.70
2022-08-03T12:14:45.747Z,36.66
2022-08-03T12:15:37.554Z,36.66
2022-08-03T12:18:03.994Z,36.67
2022-08-03T12:20:31.483Z,36.70
2022-08-03T12:22:56.749Z,36.68
2022-08-03T12:25:38.796Z,36.67
2022-08-03T12:27:49.490Z,36.64
2022-08-03T12:30:15.863Z,36.62
2022-08-03T12:32:42.285Z,36.51
2022-08-03T12:35:08.667Z,36.40
2022-08-03T12:37:35.406Z,36.35
2022-08-03T12:40:07.969Z,36.39
2022-08-03T12:42:28.042Z,36.48
2022-08-03T12:44:54.621Z,36.64
2022-08-03T12:47:21.159Z,36.82
2022-08-03T12:49:47.215Z,36.96
2022-08-03T12:52:13.612Z,37.11
2022-08-03T12:54:39.998Z,37.20
2022-08-03T12:57:06.393Z,37.01
2022-08-03T12:59:35.381Z,36.85
2022-08-03T13:01:59.244Z,36.76
2022-08-03T13:04:25.566Z,36.69
2022-08-03T13:06:51.934Z,36.62
2022-08-03T13:09:18.308Z,36.56
2022-08-03T13:11:57.736Z,36.47
2022-08-03T13:14:16.831Z,36.40
2022-08-03T13:16:37.454Z,36.34
2022-08-03T13:19:03.818Z,36.30
2022-08-03T13:21:30.188Z,36.13
2022-08-03T13:23:56.590Z,35.95
2022-08-03T13:26:23.007Z,35.80
2022-08-03T13:28:49.377Z,35.68
2022-08-03T13:31:15.756Z,35.55
2022-08-03T13:33:42.164Z,35.45
2022-08-03T13:36:08.621Z,35.37
2022-08-03T13:38:35.077Z,35.29
2022-08-03T13:41:01.490Z,35.19
2022-08-03T13:43:27.847Z,35.06
2022-08-03T13:45:57.849Z,34.97
2022-08-03T13:48:36.782Z,34.65
2022-08-03T13:50:46.978Z,34.32
2022-08-03T13:53:13.447Z,34.16
2022-08-03T13:55:39.840Z,33.96
2022-08-03T13:58:07.618Z,33.91
2022-08-03T14:00:32.575Z,33.89
2022-08-03T14:03:05.210Z,33.94
2022-08-03T14:05:25.335Z,33.75
2022-08-03T14:07:51.743Z,33.40
2022-08-03T14:10:18.110Z,33.15
2022-08-03T14:12:44.490Z,32.91
2022-08-03T14:15:10.923Z,32.77
2022-08-03T14:17:42.191Z,32.57
2022-08-03T14:20:03.710Z,32.36
2022-08-03T14:22:29.998Z,32.21
2022-08-03T14:24:56.424Z,32.06
2022-08-03T14:27:23.028Z,31.90
2022-08-03T14:29:49.182Z,31.64
2022-08-03T14:32:15.616Z,31.70
2022-08-03T14:34:41.956Z,31.67
2022-08-03T14:37:08.334Z,31.66
2022-08-03T14:42:01.122Z,31.55
2022-08-03T14:44:27.509Z,31.50
2022-08-03T14:46:53.866Z,31.36
2022-08-03T14:50:38.131Z,31.26
2022-08-03T14:51:51.532Z,31.01
2022-08-03T14:54:13.080Z,30.82
2022-08-03T14:56:39.489Z,30.65
2022-08-03T14:59:05.853Z,30.16
2022-08-03T15:02:04.376Z,29.66
2022-08-03T15:03:58.616Z,29.54
2022-08-03T15:06:24.987Z,29.08
2022-08-03T15:09:22.593Z,28.85
2022-08-03T15:11:17.741Z,28.98
2022-08-03T15:13:44.233Z,28.48
2022-08-03T15:16:10.635Z,27.93
2022-08-03T15:18:37.061Z,27.30
2022-08-03T15:21:03.503Z,27.07
2022-08-03T15:23:29.886Z,27.13
2022-08-03T15:26:04.055Z,27.63
2022-08-03T15:28:22.703Z,27.92
2022-08-03T15:30:49.153Z,27.92
2022-08-03T15:33:15.511Z,27.54
2022-08-03T15:35:41.916Z,26.80
2022-08-03T15:38:09.572Z,26.56
2022-08-03T15:40:34.687Z,26.71
2022-08-03T15:43:01.055Z,26.82
2022-08-03T15:45:27.422Z,25.56
2022-08-03T15:47:53.798Z,25.08
2022-08-03T15:50:20.193Z,24.75
2022-08-03T15:52:46.625Z,24.93
2022-08-03T15:55:15.569Z,25.48
2022-08-03T15:59:04.450Z,25.75
2022-08-03T16:00:05.758Z,25.89
2022-08-03T16:02:32.158Z,26.00
2022-08-03T16:04:58.528Z,26.06
2022-08-03T16:07:24.927Z,26.02
2022-08-03T16:09:51.348Z,25.77
2022-08-03T16:12:17.716Z,25.80
2022-08-03T16:14:52.495Z,25.95
2022-08-03T16:17:10.448Z,25.76
2022-08-03T16:19:36.925Z,24.97
2022-08-03T16:22:03.362Z,24.32
2022-08-03T16:24:29.709Z,24.34
2022-08-03T16:26:56.077Z,24.56
2022-08-03T16:29:23.849Z,24.87
2022-08-03T16:31:50.873Z,25.09
2022-08-03T16:34:15.219Z,25.16
2022-08-03T16:36:41.703Z,24.92
2022-08-03T16:39:08.173Z,24.98
2022-08-03T16:41:54.102Z,25.05
2022-08-03T16:44:00.888Z,25.06
2022-08-03T16:46:27.330Z,25.04
2022-08-03T16:48:53.766Z,25.04
2022-08-03T16:51:20.125Z,24.99
2022-08-03T16:54:07.502Z,24.97
2022-08-03T16:56:12.897Z,24.97
2022-08-03T16:58:42.849Z,24.84
2022-08-03T17:01:10.746Z,24.83
2022-08-03T17:03:42.475Z,24.87
2022-08-03T17:05:59.525Z,24.92
2022-08-03T17:08:26.772Z,24.92
2022-08-03T17:10:51.310Z,24.95
2022-08-03T17:13:21.554Z,24.96
2022-08-03T17:15:57.799Z,24.96
2022-08-03T17:18:10.500Z,24.95
2022-08-03T17:20:36.887Z,24.98
2022-08-03T17:23:03.290Z,25.01
2022-08-03T17:25:51.216Z,25.03
2022-08-03T17:28:48.177Z,25.03
2022-08-03T17:30:22.416Z,25.11
2022-08-03T17:32:52.694Z,25.24
2022-08-03T17:35:15.164Z,25.36
2022-08-03T17:37:57.634Z,25.42
2022-08-03T17:40:07.953Z,25.47
2022-08-03T17:42:34.886Z,25.52
2022-08-03T17:45:01.601Z,25.54
2022-08-03T17:47:41.331Z,25.55
2022-08-03T17:49:53.508Z,25.53
2022-08-03T17:52:20.168Z,25.53
2022-08-03T17:55:50.517Z,25.53
2022-08-03T17:57:22.451Z,25.47
2022-08-03T17:59:51.565Z,25.40
2022-08-03T18:02:17.513Z,25.34
2022-08-03T18:04:31.956Z,25.26
2022-08-03T18:06:58.338Z,25.22
2022-08-03T18:10:03.388Z,25.17
2022-08-03T18:11:51.149Z,25.14
2022-08-03T18:14:17.516Z,25.13
2022-08-03T18:16:43.901Z,25.05
2022-08-03T18:19:13.709Z,24.96
2022-08-03T18:22:02.262Z,24.94
2022-08-03T18:24:03.083Z,24.90
2022-08-03T18:26:29.454Z,24.81
2022-08-03T18:28:55.825Z,24.73
2022-08-03T18:31:33.229Z,24.66
2022-08-03T18:34:19.023Z,24.63
2022-08-03T18:36:17.754Z,24.59
2022-08-03T18:38:41.386Z,24.60
2022-08-03T18:41:13.279Z,24.62
2022-08-03T18:43:46.544Z,24.65
2022-08-03T18:46:00.561Z,24.63
2022-08-03T18:48:27.142Z,24.58
2022-08-03T18:50:53.362Z,24.54
2022-08-03T18:53:20.286Z,24.51
2022-08-03T18:56:01.316Z,24.46
2022-08-03T18:58:15.927Z,24.40
2022-08-03T19:00:53.916Z,24.34
2022-08-03T19:03:05.290Z,24.30
2022-08-03T19:05:56.193Z,24.29
2022-08-03T19:07:59.751Z,24.26
2022-08-03T19:10:24.374Z,24.21
2022-08-03T19:12:50.757Z,24.17
2022-08-03T19:15:17.140Z,24.19
2022-08-03T19:17:43.521Z,24.17
2022-08-03T19:20:09.912Z,24.16
2022-08-03T19:22:36.321Z,24.15
2022-08-03T19:25:02.757Z,24.16
2022-08-03T19:27:29.152Z,24.14
2022-08-03T19:29:59.560Z,24.11
2022-08-03T19:32:22.192Z,24.09
2022-08-03T19:34:48.346Z,24.07
2022-08-03T19:37:14.760Z,24.06
2022-08-03T19:39:41.130Z,24.07
2022-08-03T19:42:12.169Z,24.07
2022-08-03T19:44:34.074Z,24.06
2022-08-03T19:47:00.439Z,24.05
2022-08-03T19:49:59.990Z,24.00
2022-08-03T19:53:11.763Z,23.96
2022-08-03T19:55:37.600Z,24.00
2022-08-03T19:58:03.959Z,24.02
2022-08-03T20:00:32.776Z,23.99
2022-08-03T20:02:56.728Z,23.91
2022-08-03T20:05:23.159Z,23.83
2022-08-03T20:07:49.555Z,23.81
2022-08-03T20:10:16.132Z,23.80
2022-08-03T20:12:42.381Z,23.79
2022-08-03T20:15:08.758Z,23.77
2022-08-03T20:17:54.748Z,23.78
2022-08-03T20:20:01.785Z,23.78
2022-08-03T20:22:28.127Z,23.73
2022-08-03T20:24:54.616Z,23.71
2022-08-03T20:27:21.045Z,23.68
2022-08-03T20:32:13.954Z,23.63
2022-08-03T20:34:40.436Z,23.62
2022-08-03T20:37:06.813Z,23.59
2022-08-03T20:39:33.244Z,23.53
2022-08-03T20:41:59.612Z,23.51
2022-08-03T20:44:26.232Z,23.44
2022-08-03T20:47:00.202Z,23.37
2022-08-03T20:49:19.264Z,23.43
2022-08-03T20:54:28.568Z,23.47
2022-08-03T20:56:38.560Z,23.48
2022-08-03T20:59:04.950Z,23.43
2022-08-03T21:01:36.620Z,23.37
2022-08-03T21:03:57.760Z,23.31
2022-08-03T21:06:27.858Z,23.25
2022-08-03T21:08:50.493Z,23.23
2022-08-03T21:11:16.916Z,23.21
2022-08-03T21:13:07.089Z,23.65
2022-08-03T21:13:07.585Z,23.45
2022-08-03T21:13:43.301Z,23.22
2022-08-03T21:16:13.842Z,23.23
2022-08-03T21:18:36.144Z,23.24
2022-08-03T21:21:02.521Z,23.23
2022-08-03T21:23:40.109Z,23.21
2022-08-03T21:25:55.349Z,23.20
2022-08-03T21:28:27.324Z,23.19
2022-08-03T21:30:48.100Z,23.15
2022-08-03T21:33:15.483Z,23.17
2022-08-03T21:35:41.874Z,23.20
2022-08-03T21:38:08.254Z,23.19
2022-08-03T21:40:34.662Z,23.14
2022-08-03T21:43:01.079Z,23.12
2022-08-03T21:45:27.467Z,23.09
2022-08-03T21:47:53.839Z,23.09
2022-08-03T21:50:20.228Z,23.05
2022-08-03T21:52:46.611Z,23.06
2022-08-03T21:55:18.549Z,23.02
2022-08-03T21:57:39.386Z,22.98
2022-08-03T22:00:05.750Z,23.00
2022-08-03T22:02:32.517Z,23.00
2022-08-03T22:04:58.502Z,22.91
2022-08-03T22:07:24.914Z,22.77
2022-08-03T22:09:51.734Z,22.74
2022-08-03T22:12:17.667Z,22.81
2022-08-03T22:14:44.045Z,22.87
2022-08-03T22:17:10.433Z,22.89
2022-08-03T22:19:36.789Z,22.90
2022-08-03T22:22:03.204Z,22.90
2022-08-03T22:24:29.585Z,22.86
2022-08-03T22:26:55.954Z,22.78
2022-08-03T22:29:22.346Z,22.74
2022-08-03T22:31:58.028Z,22.84
2022-08-03T22:34:15.165Z,22.82
2022-08-03T22:36:41.536Z,22.78
2022-08-03T22:39:07.923Z,22.82
2022-08-03T22:41:34.367Z,22.83
2022-08-03T22:44:04.390Z,22.86
2022-08-03T22:46:27.127Z,22.81
2022-08-03T22:48:53.559Z,22.78
2022-08-03T22:51:19.934Z,22.69
2022-08-03T22:53:46.323Z,22.62
2022-08-03T22:56:12.688Z,22.68
2022-08-03T22:58:39.085Z,22.75
2022-08-03T23:01:05.526Z,22.77
2022-08-03T23:03:58.827Z,22.75
2022-08-03T23:06:02.636Z,22.72
2022-08-03T23:08:24.715Z,22.68
2022-08-03T23:10:51.085Z,22.61
2022-08-03T23:13:17.523Z,22.60
2022-08-03T23:15:43.870Z,22.62
2022-08-03T23:18:10.257Z,22.56
2022-08-03T23:20:36.681Z,22.52
2022-08-03T23:23:03.022Z,22.50
2022-08-03T23:25:29.390Z,22.39
2022-08-03T23:28:05.559Z,22.30
2022-08-03T23:30:22.313Z,22.25
2022-08-03T23:32:54.598Z,22.36
2022-08-03T23:35:15.072Z,22.52
2022-08-03T23:38:21.519Z,22.60
2022-08-03T23:40:07.843Z,22.52
2022-08-03T23:42:34.234Z,22.43
2022-08-03T23:45:05.814Z,22.43
2022-08-03T23:47:46.853Z,22.45
2022-08-03T23:49:53.361Z,22.52
2022-08-03T23:52:19.732Z,22.49
2022-08-03T23:54:46.133Z,22.39
2022-08-03T23:57:12.521Z,22.32
2022-08-03T23:59:38.901Z,22.28
